createdAt,value
2023-10-10T00:01:44.555Z,100596.66
2023-10-10T00:04:12.264Z,100600.03
2023-10-10T00:06:41.936Z,100603.59
2023-10-10T00:09:12.384Z,100607.38
2023-10-10T00:11:47.047Z,100609.34
2023-10-10T00:14:20.265Z,100613.00
2023-10-10T00:16:49.861Z,100617.41
2023-10-10T00:19:20.160Z,100616.66
2023-10-10T00:21:51.644Z,100614.25
2023-10-10T00:24:22.321Z,100621.16
2023-10-10T00:26:53.741Z,100630.75
2023-10-10T00:29:27.878Z,100633.34
2023-10-10T00:31:57.694Z,100640.84
2023-10-10T00:34:35.466Z,100650.38
2023-10-10T00:37:09.872Z,100652.31
2023-10-10T00:39:37.869Z,100640.84
2023-10-10T00:42:07.404Z,100647.09
2023-10-10T00:44:38.614Z,100645.69
2023-10-10T00:47:14.004Z,100647.50
2023-10-10T00:49:44.204Z,100653.47
2023-10-10T00:52:14.887Z,100655.03
2023-10-10T00:54:47.024Z,100641.03
2023-10-10T00:57:21.180Z,100651.38
2023-10-10T00:59:49.657Z,100660.19
2023-10-10T01:02:22.295Z,100651.56
2023-10-10T01:04:55.696Z,100648.16
2023-10-10T01:07:23.218Z,100644.50
2023-10-10T01:09:57.206Z,100650.41
2023-10-10T01:12:30.041Z,100663.28
2023-10-10T01:14:58.412Z,100677.28
2023-10-10T01:17:34.654Z,100673.72
2023-10-10T01:20:19.868Z,100680.59
2023-10-10T01:22:57.955Z,100681.66
2023-10-10T01:25:36.498Z,100678.44
2023-10-10T01:28:21.932Z,100678.50
2023-10-10T01:30:54.876Z,100672.66
2023-10-10T01:33:27.911Z,100674.47
2023-10-10T01:35:56.983Z,100671.13
2023-10-10T01:38:47.015Z,100664.19
2023-10-10T01:41:17.661Z,100673.66
2023-10-10T01:43:47.296Z,100660.88
2023-10-10T01:46:28.700Z,100657.47
2023-10-10T01:48:56.084Z,100663.00
2023-10-10T01:51:30.818Z,100656.81
2023-10-10T01:53:57.563Z,100629.72
2023-10-10T01:56:26.395Z,100611.34
2023-10-10T01:58:55.587Z,100611.56
2023-10-10T02:01:25.540Z,100609.59
2023-10-10T02:03:55.375Z,100637.31
2023-10-10T02:06:29.614Z,100650.84
2023-10-10T02:09:32.608Z,100659.50
2023-10-10T02:12:09.442Z,100667.66
2023-10-10T02:14:36.208Z,100661.38
2023-10-10T02:17:21.357Z,100671.13
2023-10-10T02:19:55.483Z,100682.75
2023-10-10T02:22:34.905Z,100666.50
2023-10-10T02:25:20.271Z,100657.72
2023-10-10T02:27:56.197Z,100659.84
2023-10-10T02:30:42.422Z,100666.72
2023-10-10T02:33:14.442Z,100664.94
2023-10-10T02:35:57.450Z,100668.63
2023-10-10T02:38:33.129Z,100671.22
2023-10-10T02:41:16.313Z,100667.59
2023-10-10T02:44:01.976Z,100685.69
2023-10-10T02:46:40.458Z,100673.59
2023-10-10T02:49:14.592Z,100673.50
2023-10-10T02:51:46.259Z,100680.50
2023-10-10T02:54:22.414Z,100681.44
2023-10-10T02:56:49.914Z,100693.69
2023-10-10T02:59:23.102Z,100700.97
2023-10-10T03:02:00.687Z,100695.94
2023-10-10T03:05:03.720Z,100701.13
2023-10-10T03:07:33.360Z,100698.56
2023-10-10T03:10:15.924Z,100702.09
2023-10-10T03:12:43.088Z,100689.28
2023-10-10T03:15:15.047Z,100689.97
2023-10-10T03:18:03.881Z,100695.56
2023-10-10T03:20:32.828Z,100689.78
2023-10-10T03:23:09.195Z,100694.75
2023-10-10T03:25:52.937Z,100704.41
2023-10-10T03:28:29.169Z,100699.41
2023-10-10T03:31:11.853Z,100696.84
2023-10-10T03:33:44.004Z,100703.13
2023-10-10T03:36:15.528Z,100702.44
2023-10-10T03:38:58.712Z,100697.34
2023-10-10T03:44:33.714Z,100708.72
2023-10-10T03:47:03.500Z,100700.72
2023-10-10T03:49:52.521Z,100705.75
2023-10-10T03:52:37.643Z,100698.66
2023-10-10T03:55:22.965Z,100709.78
2023-10-10T03:58:10.250Z,100705.59
2023-10-10T04:00:55.325Z,100703.66
2023-10-10T04:03:40.688Z,100697.69
2023-10-10T04:06:42.853Z,100707.25
2023-10-10T04:09:27.927Z,100711.84
2023-10-10T04:12:13.129Z,100723.91
2023-10-10T04:15:01.017Z,100723.03
2023-10-10T04:17:46.341Z,100724.00
2023-10-10T04:20:31.695Z,100721.63
2023-10-10T04:23:19.476Z,100724.31
2023-10-10T04:26:04.877Z,100723.25
2023-10-10T04:28:50.222Z,100730.09
2023-10-10T04:31:35.576Z,100727.56
2023-10-10T04:34:23.494Z,100723.34
2023-10-10T04:37:22.357Z,100720.78
2023-10-10T04:40:09.910Z,100731.94
2023-10-10T04:42:55.212Z,100730.16
2023-10-10T04:45:42.995Z,100746.69
2023-10-10T04:48:28.393Z,100741.53
2023-10-10T04:51:13.919Z,100735.34
2023-10-10T04:53:59.359Z,100738.63
2023-10-10T04:56:44.773Z,100732.69
2023-10-10T04:59:32.798Z,100727.56
2023-10-10T05:02:18.205Z,100735.34
2023-10-10T05:05:08.534Z,100739.72
2023-10-10T05:07:53.877Z,100742.22
2023-10-10T05:10:39.239Z,100747.25
2023-10-10T05:13:24.292Z,100746.22
2023-10-10T05:16:09.688Z,100747.75
2023-10-10T05:18:55.168Z,100754.16
2023-10-10T05:21:40.894Z,100767.25
2023-10-10T05:24:10.537Z,100760.25
2023-10-10T05:26:47.586Z,100768.22
2023-10-10T05:29:15.156Z,100764.84
2023-10-10T05:31:45.927Z,100768.34
2023-10-10T05:34:16.385Z,100766.81
2023-10-10T05:36:46.146Z,100773.00
2023-10-10T05:39:19.337Z,100778.31
2023-10-10T05:41:48.853Z,100782.78
2023-10-10T05:44:20.315Z,100781.06
2023-10-10T05:46:49.002Z,100786.31
2023-10-10T05:49:15.764Z,100793.19
2023-10-10T05:51:42.517Z,100789.03
2023-10-10T05:54:12.355Z,100790.91
2023-10-10T05:56:42.491Z,100787.34
2023-10-10T05:59:12.041Z,100784.00
2023-10-10T06:01:39.927Z,100791.16
2023-10-10T06:04:08.926Z,100795.56
2023-10-10T06:06:39.889Z,100804.59
2023-10-10T06:09:07.963Z,100797.94
2023-10-10T06:11:37.473Z,100816.38
2023-10-10T06:14:05.754Z,100815.00
2023-10-10T06:16:37.487Z,100823.00
2023-10-10T06:19:14.731Z,100814.44
2023-10-10T06:21:46.447Z,100825.63
2023-10-10T06:24:15.779Z,100831.59
2023-10-10T06:26:47.594Z,100833.47
2023-10-10T06:29:14.404Z,100839.63
2023-10-10T06:31:45.781Z,100833.63
2023-10-10T06:34:23.955Z,100834.44
2023-10-10T06:36:52.114Z,100844.25
2023-10-10T06:39:18.813Z,100846.34
2023-10-10T06:41:52.441Z,100851.88
2023-10-10T06:44:33.653Z,100852.06
2023-10-10T06:47:01.771Z,100839.19
2023-10-10T06:49:44.514Z,100837.75
2023-10-10T06:52:19.689Z,100842.38
2023-10-10T06:54:55.764Z,100845.09
2023-10-10T06:57:37.404Z,100837.38
2023-10-10T07:00:29.480Z,100842.91
2023-10-10T07:02:57.176Z,100844.69
2023-10-10T07:05:29.472Z,100835.34
2023-10-10T07:08:13.745Z,100842.41
2023-10-10T07:10:43.427Z,100840.91
2023-10-10T07:13:20.460Z,100849.63
2023-10-10T07:15:52.735Z,100851.28
2023-10-10T07:18:25.681Z,100852.44
2023-10-10T07:21:08.087Z,100857.53
2023-10-10T07:23:53.920Z,100856.75
2023-10-10T07:26:21.740Z,100862.16
2023-10-10T07:28:54.329Z,100861.22
2023-10-10T07:31:22.933Z,100860.53
2023-10-10T07:33:57.365Z,100862.06
2023-10-10T07:36:26.039Z,100866.28
2023-10-10T07:38:56.050Z,100850.06
2023-10-10T07:41:25.786Z,100853.75
2023-10-10T07:43:55.039Z,100841.84
2023-10-10T07:46:24.335Z,100844.63
2023-10-10T07:48:55.458Z,100853.56
2023-10-10T07:51:29.599Z,100854.63
2023-10-10T07:54:14.680Z,100849.81
2023-10-10T07:56:48.255Z,100851.72
2023-10-10T07:59:20.597Z,100851.19
2023-10-10T08:01:51.709Z,100852.97
2023-10-10T08:04:20.685Z,100853.19
2023-10-10T08:06:52.289Z,100853.34
2023-10-10T08:09:23.246Z,100855.25
2023-10-10T08:11:56.429Z,100853.59
2023-10-10T08:14:32.417Z,100845.88
2023-10-10T08:17:03.913Z,100857.25
2023-10-10T08:19:34.822Z,100863.47
2023-10-10T08:22:13.621Z,100866.16
2023-10-10T08:24:45.086Z,100873.97
2023-10-10T08:27:15.482Z,100873.81
2023-10-10T08:29:42.850Z,100867.72
2023-10-10T08:32:10.200Z,100860.06
2023-10-10T08:34:44.024Z,100874.13
2023-10-10T08:37:11.577Z,100876.06
2023-10-10T08:39:40.427Z,100877.63
2023-10-10T08:42:12.236Z,100882.78
2023-10-10T08:44:42.664Z,100894.25
2023-10-10T08:47:09.772Z,100897.97
2023-10-10T08:49:37.146Z,100891.03
2023-10-10T08:52:08.620Z,100882.25
2023-10-10T08:54:42.133Z,100879.81
2023-10-10T08:57:25.916Z,100882.69
2023-10-10T08:59:53.762Z,100882.84
2023-10-10T09:02:21.485Z,100886.25
2023-10-10T09:04:48.179Z,100890.56
2023-10-10T09:07:44.430Z,100894.00
2023-10-10T09:10:17.818Z,100897.78
2023-10-10T09:12:54.345Z,100903.16
2023-10-10T09:15:23.880Z,100905.94
2023-10-10T09:17:52.947Z,100907.72
2023-10-10T09:20:38.464Z,100905.16
2023-10-10T09:23:17.216Z,100913.81
2023-10-10T09:25:45.582Z,100911.34
2023-10-10T09:28:16.648Z,100915.72
2023-10-10T09:30:47.052Z,100914.97
2023-10-10T09:33:31.190Z,100909.16
2023-10-10T09:36:17.127Z,100924.28
2023-10-10T09:38:47.608Z,100927.03
2023-10-10T09:41:33.098Z,100927.03
2023-10-10T09:44:24.405Z,100920.28
2023-10-10T09:47:14.701Z,100925.59
2023-10-10T09:49:45.190Z,100924.59
2023-10-10T09:52:30.609Z,100923.56
2023-10-10T09:55:15.565Z,100920.09
2023-10-10T09:58:01.721Z,100917.97
2023-10-10T10:00:34.491Z,100928.84
2023-10-10T10:03:21.101Z,100923.41
2023-10-10T10:05:59.487Z,100915.59
2023-10-10T10:08:43.734Z,100911.28
2023-10-10T10:11:14.893Z,100908.03
2023-10-10T10:13:41.714Z,100905.03
2023-10-10T10:16:16.741Z,100898.22
2023-10-10T10:18:46.666Z,100912.31
2023-10-10T10:21:31.656Z,100911.00
2023-10-10T10:24:17.135Z,100901.81
2023-10-10T10:26:45.208Z,100914.13
2023-10-10T10:29:23.747Z,100915.59
2023-10-10T10:31:53.421Z,100904.00
2023-10-10T10:34:33.181Z,100913.91
2023-10-10T10:37:07.670Z,100908.97
2023-10-10T10:39:38.429Z,100911.06
2023-10-10T10:42:13.357Z,100911.28
2023-10-10T10:45:02.117Z,100903.72
2023-10-10T10:47:46.870Z,100903.06
2023-10-10T10:50:41.629Z,100904.16
2023-10-10T10:53:22.054Z,100907.00
2023-10-10T10:56:09.456Z,100895.84
2023-10-10T10:58:57.924Z,100901.47
2023-10-10T11:01:25.287Z,100899.06
2023-10-10T11:03:53.076Z,100905.03
2023-10-10T11:06:21.567Z,100905.09
2023-10-10T11:11:25.029Z,100908.69
2023-10-10T11:13:52.890Z,100895.81
2023-10-10T11:16:19.991Z,100898.72
2023-10-10T11:19:00.363Z,100894.53
2023-10-10T11:21:28.977Z,100896.88
2023-10-10T11:23:59.142Z,100888.50
2023-10-10T11:26:32.809Z,100891.38
2023-10-10T11:29:00.516Z,100889.78
2023-10-10T11:31:30.647Z,100883.38
2023-10-10T11:34:11.014Z,100880.91
2023-10-10T11:36:41.066Z,100871.22
2023-10-10T11:39:35.614Z,100862.97
2023-10-10T11:42:08.681Z,100870.59
2023-10-10T11:44:35.637Z,100869.53
2023-10-10T11:47:08.906Z,100869.09
2023-10-10T11:49:35.896Z,100864.66
2023-10-10T11:52:02.480Z,100860.63
2023-10-10T11:54:31.523Z,100862.47
2023-10-10T11:57:01.294Z,100857.22
2023-10-10T11:59:34.090Z,100856.19
2023-10-10T12:02:18.189Z,100851.59
2023-10-10T12:04:48.088Z,100856.97
2023-10-10T12:07:16.194Z,100852.06
2023-10-10T12:09:46.719Z,100848.91
2023-10-10T12:12:14.332Z,100844.00
2023-10-10T12:14:43.913Z,100835.59
2023-10-10T12:17:11.751Z,100839.53
2023-10-10T12:19:38.697Z,100834.41
2023-10-10T12:22:10.055Z,100829.44
2023-10-10T12:24:41.094Z,100826.94
2023-10-10T12:27:09.487Z,100824.47
2023-10-10T12:29:41.318Z,100829.75
2023-10-10T12:32:20.720Z,100839.50
2023-10-10T12:34:48.514Z,100837.78
2023-10-10T12:37:18.325Z,100837.91
2023-10-10T12:39:50.353Z,100837.97
2023-10-10T12:42:17.056Z,100827.06
2023-10-10T12:44:49.888Z,100828.22
2023-10-10T12:47:18.883Z,100830.34
2023-10-10T12:49:46.156Z,100832.19
2023-10-10T12:52:13.751Z,100837.78
2023-10-10T12:54:43.103Z,100840.63
2023-10-10T12:57:15.250Z,100838.41
2023-10-10T12:59:47.584Z,100832.94
2023-10-10T13:02:17.232Z,100833.47
2023-10-10T13:04:54.122Z,100838.03
2023-10-10T13:07:23.577Z,100835.44
2023-10-10T13:09:51.169Z,100833.13
2023-10-10T13:12:29.083Z,100835.41
2023-10-10T13:15:12.522Z,100829.47
2023-10-10T13:17:51.656Z,100825.22
2023-10-10T13:20:22.425Z,100821.47
2023-10-10T13:22:51.838Z,100829.94
2023-10-10T13:25:20.083Z,100816.28
2023-10-10T13:27:50.862Z,100806.88
2023-10-10T13:30:20.022Z,100795.31
2023-10-10T13:32:47.972Z,100790.84
2023-10-10T13:35:15.157Z,100786.09
2023-10-10T13:37:42.528Z,100791.69
2023-10-10T13:40:10.443Z,100792.28
2023-10-10T13:42:43.995Z,100790.13
2023-10-10T13:45:13.147Z,100788.06
2023-10-10T13:47:40.909Z,100785.50
2023-10-10T13:50:30.417Z,100789.72
2023-10-10T13:52:57.483Z,100784.03
2023-10-10T13:55:24.506Z,100798.50
2023-10-10T13:57:51.127Z,100795.81
2023-10-10T14:00:47.053Z,100793.94
2023-10-10T14:03:16.051Z,100798.97
2023-10-10T14:06:01.281Z,100788.47
2023-10-10T14:08:28.412Z,100788.69
2023-10-10T14:10:55.445Z,100785.06
2023-10-10T14:13:22.331Z,100793.41
2023-10-10T14:15:59.109Z,100786.41
2023-10-10T14:18:27.104Z,100794.25
2023-10-10T14:20:54.698Z,100791.94
2023-10-10T14:23:22.847Z,100786.53
2023-10-10T14:25:50.404Z,100800.88
2023-10-10T14:28:18.180Z,100809.72
2023-10-10T14:30:50.443Z,100805.00
2023-10-10T14:33:23.582Z,100804.34
2023-10-10T14:35:50.915Z,100814.38
2023-10-10T14:38:19.954Z,100818.56
2023-10-10T14:40:46.792Z,100810.13
2023-10-10T14:43:15.803Z,100811.97
2023-10-10T14:45:45.343Z,100812.22
2023-10-10T14:48:16.059Z,100809.69
2023-10-10T14:50:58.480Z,100800.66
2023-10-10T14:53:25.633Z,100808.03
2023-10-10T14:55:52.843Z,100803.88
2023-10-10T14:58:22.936Z,100797.91
2023-10-10T15:00:58.325Z,100804.19
2023-10-10T15:03:26.869Z,100804.25
2023-10-10T15:05:53.864Z,100814.81
2023-10-10T15:08:21.094Z,100815.69
2023-10-10T15:10:54.649Z,100820.88
2023-10-10T15:13:27.287Z,100826.09
2023-10-10T15:15:54.048Z,100821.72
2023-10-10T15:18:20.830Z,100823.47
2023-10-10T15:20:50.039Z,100824.31
2023-10-10T15:23:21.431Z,100826.81
2023-10-10T15:25:54.782Z,100841.53
2023-10-10T15:28:21.637Z,100840.50
2023-10-10T15:30:48.392Z,100842.81
2023-10-10T15:33:19.132Z,100843.34
2023-10-10T15:35:48.018Z,100850.19
2023-10-10T15:38:14.735Z,100839.47
2023-10-10T15:40:44.937Z,100843.69
2023-10-10T15:43:29.913Z,100847.84
2023-10-10T15:45:59.453Z,100853.66
2023-10-10T15:48:27.128Z,100859.53
2023-10-10T15:50:55.159Z,100864.63
2023-10-10T15:53:22.366Z,100857.44
2023-10-10T15:56:08.511Z,100849.53
2023-10-10T15:58:41.462Z,100849.25
2023-10-10T16:01:12.414Z,100851.81
2023-10-10T16:03:40.034Z,100857.81
2023-10-10T16:06:09.524Z,100860.22
2023-10-10T16:08:37.243Z,100858.41
2023-10-10T16:11:05.038Z,100864.34
2023-10-10T16:13:37.205Z,100862.41
2023-10-10T16:16:07.588Z,100864.03
2023-10-10T16:18:35.197Z,100864.72
2023-10-10T16:21:04.009Z,100870.88
2023-10-10T16:23:33.591Z,100872.44
2023-10-10T16:26:00.403Z,100874.09
2023-10-10T16:28:29.915Z,100875.78
2023-10-10T16:30:58.857Z,100874.97
2023-10-10T16:33:27.741Z,100881.97
2023-10-10T16:35:57.665Z,100880.00
2023-10-10T16:38:26.921Z,100878.00
2023-10-10T16:40:56.050Z,100880.47
2023-10-10T16:43:25.673Z,100886.53
2023-10-10T16:45:54.817Z,100891.53
2023-10-10T16:48:24.198Z,100895.59
2023-10-10T16:50:53.917Z,100900.59
2023-10-10T16:53:20.748Z,100898.78
2023-10-10T16:55:47.410Z,100898.69
2023-10-10T16:58:16.577Z,100904.78
2023-10-10T17:00:48.678Z,100906.22
2023-10-10T17:03:15.506Z,100907.00
2023-10-10T17:05:42.466Z,100917.44
2023-10-10T17:08:12.629Z,100916.59
2023-10-10T17:10:42.134Z,100914.44
2023-10-10T17:13:09.215Z,100919.50
2023-10-10T17:15:36.307Z,100915.06
2023-10-10T17:18:05.420Z,100920.03
2023-10-10T17:20:32.240Z,100923.25
2023-10-10T17:23:00.632Z,100926.75
2023-10-10T17:25:29.599Z,100923.31
2023-10-10T17:28:01.296Z,100922.44
2023-10-10T17:30:28.745Z,100927.66
2023-10-10T17:32:55.639Z,100924.19
2023-10-10T17:35:25.201Z,100929.25
2023-10-10T17:37:51.947Z,100934.31
2023-10-10T17:40:18.701Z,100929.84
2023-10-10T17:42:47.465Z,100935.09
2023-10-10T17:45:14.309Z,100936.91
2023-10-10T17:47:41.477Z,100946.19
2023-10-10T17:50:08.511Z,100949.69
2023-10-10T17:52:37.470Z,100948.13
2023-10-10T17:55:07.107Z,100950.84
2023-10-10T17:57:34.066Z,100942.16
2023-10-10T18:00:01.106Z,100952.81
2023-10-10T18:02:27.876Z,100935.25
2023-10-10T18:04:54.593Z,100956.69
2023-10-10T18:07:23.586Z,100960.00
2023-10-10T18:09:56.177Z,100966.09
2023-10-10T18:12:26.362Z,100961.78
2023-10-10T18:14:53.966Z,100965.03
2023-10-10T18:17:23.318Z,100965.00
2023-10-10T18:19:52.591Z,100964.16
2023-10-10T18:22:19.803Z,100960.84
2023-10-10T18:24:48.966Z,100966.19
2023-10-10T18:27:16.697Z,100967.16
2023-10-10T18:29:46.021Z,100968.16
2023-10-10T18:32:12.742Z,100961.34
2023-10-10T18:34:43.102Z,100973.50
2023-10-10T18:37:14.041Z,100971.81
2023-10-10T18:39:41.012Z,100982.38
2023-10-10T18:42:10.895Z,100984.13
2023-10-10T18:44:38.516Z,100981.25
2023-10-10T18:47:05.445Z,100981.16
2023-10-10T18:49:34.920Z,100984.53
2023-10-10T18:52:01.875Z,100979.31
2023-10-10T18:54:31.972Z,100986.19
2023-10-10T18:57:00.337Z,100980.94
2023-10-10T18:59:29.781Z,100986.28
2023-10-10T19:01:58.749Z,100989.06
2023-10-10T19:04:26.120Z,100993.44
2023-10-10T19:06:54.055Z,100992.72
2023-10-10T19:09:24.377Z,100993.69
2023-10-10T19:11:51.531Z,100992.72
2023-10-10T19:14:18.647Z,101002.16
2023-10-10T19:16:45.658Z,101003.09
2023-10-10T19:19:12.506Z,101003.97
2023-10-10T19:21:43.060Z,101000.44
2023-10-10T19:24:10.059Z,101000.28
2023-10-10T19:26:36.848Z,101000.91
2023-10-10T19:29:05.304Z,100995.59
2023-10-10T19:31:41.333Z,100993.72
2023-10-10T19:34:11.407Z,101002.88
2023-10-10T19:36:40.992Z,101002.06
2023-10-10T19:39:11.841Z,101004.22
2023-10-10T19:41:41.231Z,101003.03
2023-10-10T19:44:08.480Z,101003.63
2023-10-10T19:46:35.265Z,101012.41
2023-10-10T19:49:02.284Z,101007.59
2023-10-10T19:51:29.103Z,101008.66
2023-10-10T19:53:55.898Z,101013.84
2023-10-10T19:56:22.788Z,101011.47
2023-10-10T19:58:50.033Z,101021.13
2023-10-10T20:01:17.203Z,101016.91
2023-10-10T20:03:47.512Z,101021.22
2023-10-10T20:06:15.953Z,101025.63
2023-10-10T20:08:42.893Z,101023.09
2023-10-10T20:11:09.672Z,101021.13
2023-10-10T20:13:36.341Z,101016.16
2023-10-10T20:16:13.398Z,101022.03
2023-10-10T20:18:45.077Z,101021.94
2023-10-10T20:21:13.509Z,101025.47
2023-10-10T20:23:43.690Z,101022.94
2023-10-10T20:26:19.551Z,101022.81
2023-10-10T20:28:49.661Z,101028.84
2023-10-10T20:31:23.150Z,101030.63
2023-10-10T20:33:52.370Z,101028.06
2023-10-10T20:36:19.071Z,101034.94
2023-10-10T20:38:46.067Z,101037.53
2023-10-10T20:41:15.868Z,101039.22
2023-10-10T20:43:43.469Z,101033.84
2023-10-10T20:46:10.771Z,101034.75
2023-10-10T20:48:37.608Z,101047.75
2023-10-10T20:51:04.840Z,101038.91
2023-10-10T20:53:32.011Z,101038.94
2023-10-10T20:55:58.839Z,101031.97
2023-10-10T20:58:30.120Z,101034.69
2023-10-10T21:00:57.094Z,101038.28
2023-10-10T21:03:26.870Z,101039.88
2023-10-10T21:05:56.108Z,101028.69
2023-10-10T21:08:27.057Z,101027.72
2023-10-10T21:10:54.099Z,101027.63
2023-10-10T21:13:23.023Z,101020.47
2023-10-10T21:15:53.086Z,101017.13
2023-10-10T21:18:19.984Z,101020.44
2023-10-10T21:21:00.291Z,101015.44
2023-10-10T21:23:32.581Z,101025.22
2023-10-10T21:25:59.372Z,101016.72
2023-10-10T21:28:26.376Z,101011.53
2023-10-10T21:30:53.260Z,101007.94
2023-10-10T21:33:20.231Z,101013.53
2023-10-10T21:35:47.082Z,101018.59
2023-10-10T21:38:13.688Z,101017.53
2023-10-10T21:40:42.599Z,101017.53
2023-10-10T21:43:09.310Z,101007.88
2023-10-10T21:45:40.226Z,101010.50
2023-10-10T21:48:11.615Z,101008.06
2023-10-10T21:50:40.405Z,101024.31
2023-10-10T21:53:09.747Z,101013.56
2023-10-10T21:55:38.810Z,101024.31
2023-10-10T21:58:06.302Z,101025.28
2023-10-10T22:00:35.963Z,101018.31
2023-10-10T22:03:06.242Z,101015.91
2023-10-10T22:05:33.282Z,101022.00
2023-10-10T22:08:02.337Z,101029.06
2023-10-10T22:10:34.156Z,101039.03
2023-10-10T22:13:01.949Z,101049.78
2023-10-10T22:15:28.703Z,101055.41
2023-10-10T22:17:56.839Z,101051.19
2023-10-10T22:20:24.584Z,101060.19
2023-10-10T22:22:51.547Z,101070.81
2023-10-10T22:25:23.902Z,101060.50
2023-10-10T22:27:51.825Z,101059.00
2023-10-10T22:30:19.142Z,101053.97
2023-10-10T22:32:46.783Z,101060.00
2023-10-10T22:35:13.657Z,101061.78
2023-10-10T22:37:40.535Z,101061.09
2023-10-10T22:40:18.503Z,101057.88
2023-10-10T22:42:45.338Z,101060.66
2023-10-10T22:45:20.796Z,101048.31
2023-10-10T22:48:00.185Z,101056.00
2023-10-10T22:50:31.832Z,101053.50
2023-10-10T22:53:10.777Z,101050.94
2023-10-10T22:55:39.092Z,101048.53
2023-10-10T22:58:09.255Z,101050.25
2023-10-10T23:00:39.447Z,101052.75
2023-10-10T23:03:10.841Z,101051.78
2023-10-10T23:05:43.236Z,101042.94
2023-10-10T23:08:11.924Z,101041.19
2023-10-10T23:10:41.838Z,101046.44
2023-10-10T23:13:17.167Z,101046.44
2023-10-10T23:15:49.174Z,101037.78
2023-10-10T23:18:19.134Z,101038.50
2023-10-10T23:20:48.414Z,101033.19
2023-10-10T23:23:17.576Z,101038.16
2023-10-10T23:25:47.154Z,101048.38
2023-10-10T23:28:13.832Z,101039.84
2023-10-10T23:30:41.691Z,101042.72
2023-10-10T23:33:17.660Z,101037.50
2023-10-10T23:35:47.059Z,101035.81
2023-10-10T23:38:13.894Z,101041.66
2023-10-10T23:40:42.529Z,101045.22
2023-10-10T23:43:22.965Z,101044.38
2023-10-10T23:45:56.316Z,101034.72
2023-10-10T23:48:30.136Z,100989.31
2023-10-10T23:50:57.692Z,101044.28
2023-10-10T23:53:24.408Z,101028.63
2023-10-10T23:56:00.504Z,101041.34
2023-10-10T23:58:27.567Z,101037.66
